sensor_id;sensor_type;location;lat;lon;timestamp;P1;durP1;ratioP1;P2;durP2;ratioP2
72087;SDS011;59961;50.232;8.616;2022-07-22T00:02:08;8.07;;;4.20;;
72087;SDS011;59961;50.232;8.616;2022-07-22T00:04:33;9.37;;;4.20;;
72087;SDS011;59961;50.232;8.616;2022-07-22T00:06:58;7.03;;;3.93;;
72087;SDS011;59961;50.232;8.616;2022-07-22T00:09:23;8.00;;;4.30;;
72087;SDS011;59961;50.232;8.616;2022-07-22T00:11:49;6.40;;;3.47;;
72087;SDS011;59961;50.232;8.616;2022-07-22T00:14:14;10.90;;;4.47;;
72087;SDS011;59961;50.232;8.616;2022-07-22T00:16:39;7.47;;;3.23;;
72087;SDS011;59961;50.232;8.616;2022-07-22T00:19:04;6.13;;;3.17;;
72087;SDS011;59961;50.232;8.616;2022-07-22T00:21:30;6.50;;;3.63;;
72087;SDS011;59961;50.232;8.616;2022-07-22T00:23:55;4.77;;;2.67;;
72087;SDS011;59961;50.232;8.616;2022-07-22T00:26:20;6.70;;;3.30;;
72087;SDS011;59961;50.232;8.616;2022-07-22T00:28:45;8.03;;;4.67;;
72087;SDS011;59961;50.232;8.616;2022-07-22T00:31:10;7.30;;;3.15;;
72087;SDS011;59961;50.232;8.616;2022-07-22T00:33:36;6.77;;;3.27;;
72087;SDS011;59961;50.232;8.616;2022-07-22T00:36:01;6.17;;;2.60;;
72087;SDS011;59961;50.232;8.616;2022-07-22T00:38:26;4.67;;;2.63;;
72087;SDS011;59961;50.232;8.616;2022-07-22T00:40:51;6.90;;;2.42;;
72087;SDS011;59961;50.232;8.616;2022-07-22T00:43:16;5.72;;;3.30;;
72087;SDS011;59961;50.232;8.616;2022-07-22T00:45:41;8.97;;;3.30;;
72087;SDS011;59961;50.232;8.616;2022-07-22T00:48:07;6.77;;;3.20;;
72087;SDS011;59961;50.232;8.616;2022-07-22T00:50:32;5.97;;;3.53;;
72087;SDS011;59961;50.232;8.616;2022-07-22T00:52:57;5.53;;;3.00;;
72087;SDS011;59961;50.232;8.616;2022-07-22T00:55:23;6.17;;;3.30;;
72087;SDS011;59961;50.232;8.616;2022-07-22T00:57:48;5.03;;;2.70;;
72087;SDS011;59961;50.232;8.616;2022-07-22T01:00:15;4.63;;;2.85;;
72087;SDS011;59961;50.232;8.616;2022-07-22T01:02:40;7.05;;;3.13;;
72087;SDS011;59961;50.232;8.616;2022-07-22T01:05:06;6.60;;;3.23;;
72087;SDS011;59961;50.232;8.616;2022-07-22T01:07:31;8.50;;;3.77;;
72087;SDS011;59961;50.232;8.616;2022-07-22T01:09:56;7.20;;;3.40;;
72087;SDS011;59961;50.232;8.616;2022-07-22T01:12:22;6.87;;;3.07;;
72087;SDS011;59961;50.232;8.616;2022-07-22T01:14:47;5.97;;;3.20;;
72087;SDS011;59961;50.232;8.616;2022-07-22T01:17:12;6.35;;;3.25;;
72087;SDS011;59961;50.232;8.616;2022-07-22T01:19:37;7.37;;;3.53;;
72087;SDS011;59961;50.232;8.616;2022-07-22T01:22:04;5.77;;;3.27;;
72087;SDS011;59961;50.232;8.616;2022-07-22T01:24:29;5.82;;;3.13;;
72087;SDS011;59961;50.232;8.616;2022-07-22T01:26:54;6.87;;;3.63;;
72087;SDS011;59961;50.232;8.616;2022-07-22T01:29:19;6.50;;;3.70;;
72087;SDS011;59961;50.232;8.616;2022-07-22T01:31:44;5.23;;;2.53;;
72087;SDS011;59961;50.232;8.616;2022-07-22T01:34:09;6.67;;;3.37;;
72087;SDS011;59961;50.232;8.616;2022-07-22T01:36:35;6.53;;;3.30;;
72087;SDS011;59961;50.232;8.616;2022-07-22T01:39:00;7.63;;;3.57;;
72087;SDS011;59961;50.232;8.616;2022-07-22T01:41:25;6.67;;;3.50;;
72087;SDS011;59961;50.232;8.616;2022-07-22T01:43:51;6.53;;;3.60;;
72087;SDS011;59961;50.232;8.616;2022-07-22T01:46:16;6.10;;;3.70;;
72087;SDS011;59961;50.232;8.616;2022-07-22T01:48:43;6.18;;;3.58;;
72087;SDS011;59961;50.232;8.616;2022-07-22T01:51:08;7.27;;;3.80;;
72087;SDS011;59961;50.232;8.616;2022-07-22T01:53:33;5.77;;;3.53;;
72087;SDS011;59961;50.232;8.616;2022-07-22T01:55:59;5.72;;;3.30;;
72087;SDS011;59961;50.232;8.616;2022-07-22T01:58:24;7.17;;;3.80;;
72087;SDS011;59961;50.232;8.616;2022-07-22T02:00:49;8.20;;;3.60;;
72087;SDS011;59961;50.232;8.616;2022-07-22T02:03:15;7.40;;;3.43;;
72087;SDS011;59961;50.232;8.616;2022-07-22T02:05:40;7.50;;;3.80;;
72087;SDS011;59961;50.232;8.616;2022-07-22T02:08:06;9.73;;;3.90;;
72087;SDS011;59961;50.232;8.616;2022-07-22T02:10:31;6.07;;;3.20;;
72087;SDS011;59961;50.232;8.616;2022-07-22T02:12:57;6.00;;;3.50;;
72087;SDS011;59961;50.232;8.616;2022-07-22T02:15:22;6.20;;;3.70;;
72087;SDS011;59961;50.232;8.616;2022-07-22T02:17:48;7.63;;;3.17;;
72087;SDS011;59961;50.232;8.616;2022-07-22T02:20:13;7.67;;;3.63;;
72087;SDS011;59961;50.232;8.616;2022-07-22T02:22:38;7.13;;;3.37;;
72087;SDS011;59961;50.232;8.616;2022-07-22T02:25:04;8.13;;;3.77;;
72087;SDS011;59961;50.232;8.616;2022-07-22T02:27:29;6.87;;;3.57;;
72087;SDS011;59961;50.232;8.616;2022-07-22T02:29:54;7.20;;;3.97;;
72087;SDS011;59961;50.232;8.616;2022-07-22T02:32:19;7.53;;;3.90;;
72087;SDS011;59961;50.232;8.616;2022-07-22T02:34:44;8.50;;;4.07;;
72087;SDS011;59961;50.232;8.616;2022-07-22T02:37:10;8.33;;;4.17;;
72087;SDS011;59961;50.232;8.616;2022-07-22T02:39:35;7.70;;;4.13;;
72087;SDS011;59961;50.232;8.616;2022-07-22T02:42:00;6.57;;;4.57;;
72087;SDS011;59961;50.232;8.616;2022-07-22T02:44:25;6.67;;;4.00;;
72087;SDS011;59961;50.232;8.616;2022-07-22T02:46:50;9.20;;;4.37;;
72087;SDS011;59961;50.232;8.616;2022-07-22T02:49:15;6.47;;;4.00;;
72087;SDS011;59961;50.232;8.616;2022-07-22T02:51:41;7.93;;;3.90;;
72087;SDS011;59961;50.232;8.616;2022-07-22T02:54:06;8.53;;;4.27;;
72087;SDS011;59961;50.232;8.616;2022-07-22T02:56:31;7.17;;;3.97;;
72087;SDS011;59961;50.232;8.616;2022-07-22T02:58:56;8.83;;;4.10;;
72087;SDS011;59961;50.232;8.616;2022-07-22T03:01:21;6.87;;;4.40;;
72087;SDS011;59961;50.232;8.616;2022-07-22T03:03:47;7.40;;;4.40;;
72087;SDS011;59961;50.232;8.616;2022-07-22T03:06:12;8.60;;;4.80;;
72087;SDS011;59961;50.232;8.616;2022-07-22T03:08:37;7.82;;;4.35;;
72087;SDS011;59961;50.232;8.616;2022-07-22T03:11:02;7.30;;;4.30;;
72087;SDS011;59961;50.232;8.616;2022-07-22T03:13:28;7.15;;;4.00;;
72087;SDS011;59961;50.232;8.616;2022-07-22T03:15:53;7.50;;;4.53;;
72087;SDS011;59961;50.232;8.616;2022-07-22T03:18:18;8.00;;;4.60;;
72087;SDS011;59961;50.232;8.616;2022-07-22T03:20:44;8.50;;;4.60;;
72087;SDS011;59961;50.232;8.616;2022-07-22T03:23:09;9.40;;;4.60;;
72087;SDS011;59961;50.232;8.616;2022-07-22T03:25:34;7.60;;;4.23;;
72087;SDS011;59961;50.232;8.616;2022-07-22T03:27:59;7.17;;;4.20;;
72087;SDS011;59961;50.232;8.616;2022-07-22T03:30:25;10.03;;;4.90;;
72087;SDS011;59961;50.232;8.616;2022-07-22T03:32:50;10.10;;;4.97;;
72087;SDS011;59961;50.232;8.616;2022-07-22T03:35:15;7.37;;;4.20;;
72087;SDS011;59961;50.232;8.616;2022-07-22T03:37:41;8.37;;;4.53;;
72087;SDS011;59961;50.232;8.616;2022-07-22T03:40:06;10.87;;;4.90;;
72087;SDS011;59961;50.232;8.616;2022-07-22T03:42:32;8.93;;;5.23;;
72087;SDS011;59961;50.232;8.616;2022-07-22T03:44:57;9.85;;;4.85;;
72087;SDS011;59961;50.232;8.616;2022-07-22T03:47:22;10.93;;;5.03;;
72087;SDS011;59961;50.232;8.616;2022-07-22T03:49:47;8.50;;;5.27;;
72087;SDS011;59961;50.232;8.616;2022-07-22T03:52:13;10.80;;;5.87;;
72087;SDS011;59961;50.232;8.616;2022-07-22T03:54:38;9.27;;;5.03;;
72087;SDS011;59961;50.232;8.616;2022-07-22T03:57:03;8.40;;;5.10;;
72087;SDS011;59961;50.232;8.616;2022-07-22T03:59:28;6.93;;;3.20;;
72087;SDS011;59961;50.232;8.616;2022-07-22T04:01:53;9.07;;;4.80;;
72087;SDS011;59961;50.232;8.616;2022-07-22T04:04:18;10.32;;;5.38;;
72087;SDS011;59961;50.232;8.616;2022-07-22T04:06:44;12.55;;;6.30;;
72087;SDS011;59961;50.232;8.616;2022-07-22T04:09:10;9.77;;;5.68;;
72087;SDS011;59961;50.232;8.616;2022-07-22T04:11:35;13.07;;;6.90;;
72087;SDS011;59961;50.232;8.616;2022-07-22T04:14:00;9.77;;;6.00;;
72087;SDS011;59961;50.232;8.616;2022-07-22T04:16:25;11.77;;;6.37;;
72087;SDS011;59961;50.232;8.616;2022-07-22T04:18:50;14.10;;;5.63;;
72087;SDS011;59961;50.232;8.616;2022-07-22T04:21:15;10.82;;;6.18;;
72087;SDS011;59961;50.232;8.616;2022-07-22T04:23:41;11.05;;;6.40;;
72087;SDS011;59961;50.232;8.616;2022-07-22T04:26:06;10.70;;;6.07;;
72087;SDS011;59961;50.232;8.616;2022-07-22T04:28:34;10.63;;;6.63;;
72087;SDS011;59961;50.232;8.616;2022-07-22T04:31:00;10.70;;;6.15;;
72087;SDS011;59961;50.232;8.616;2022-07-22T04:33:26;15.18;;;6.97;;
72087;SDS011;59961;50.232;8.616;2022-07-22T04:35:51;12.73;;;6.82;;
72087;SDS011;59961;50.232;8.616;2022-07-22T04:38:16;10.60;;;6.03;;
72087;SDS011;59961;50.232;8.616;2022-07-22T04:40:42;11.23;;;6.00;;
72087;SDS011;59961;50.232;8.616;2022-07-22T04:43:07;11.32;;;6.20;;
72087;SDS011;59961;50.232;8.616;2022-07-22T04:45:32;12.68;;;5.80;;
72087;SDS011;59961;50.232;8.616;2022-07-22T04:47:58;9.20;;;5.97;;
72087;SDS011;59961;50.232;8.616;2022-07-22T04:50:23;11.63;;;6.25;;
72087;SDS011;59961;50.232;8.616;2022-07-22T04:52:48;11.33;;;6.57;;
72087;SDS011;59961;50.232;8.616;2022-07-22T04:55:13;11.43;;;5.73;;
72087;SDS011;59961;50.232;8.616;2022-07-22T04:57:38;12.38;;;5.95;;
72087;SDS011;59961;50.232;8.616;2022-07-22T05:00:03;10.67;;;6.00;;
72087;SDS011;59961;50.232;8.616;2022-07-22T05:02:29;9.60;;;5.97;;
72087;SDS011;59961;50.232;8.616;2022-07-22T05:04:54;10.50;;;6.53;;
72087;SDS011;59961;50.232;8.616;2022-07-22T05:07:19;9.20;;;5.80;;
72087;SDS011;59961;50.232;8.616;2022-07-22T05:09:45;10.30;;;5.97;;
72087;SDS011;59961;50.232;8.616;2022-07-22T05:12:10;9.53;;;5.93;;
72087;SDS011;59961;50.232;8.616;2022-07-22T05:14:35;10.60;;;6.27;;
72087;SDS011;59961;50.232;8.616;2022-07-22T05:17:00;10.23;;;6.23;;
72087;SDS011;59961;50.232;8.616;2022-07-22T05:19:25;11.48;;;5.88;;
72087;SDS011;59961;50.232;8.616;2022-07-22T05:21:51;12.52;;;6.55;;
72087;SDS011;59961;50.232;8.616;2022-07-22T05:24:17;11.93;;;6.23;;
72087;SDS011;59961;50.232;8.616;2022-07-22T05:26:42;10.07;;;5.70;;
72087;SDS011;59961;50.232;8.616;2022-07-22T05:29:07;12.07;;;6.18;;
72087;SDS011;59961;50.232;8.616;2022-07-22T05:31:32;9.37;;;5.47;;
72087;SDS011;59961;50.232;8.616;2022-07-22T05:33:57;8.73;;;4.97;;
72087;SDS011;59961;50.232;8.616;2022-07-22T05:36:22;9.33;;;5.03;;
72087;SDS011;59961;50.232;8.616;2022-07-22T05:38:48;9.30;;;4.57;;
72087;SDS011;59961;50.232;8.616;2022-07-22T05:41:13;7.77;;;4.23;;
72087;SDS011;59961;50.232;8.616;2022-07-22T05:43:38;11.20;;;4.30;;
72087;SDS011;59961;50.232;8.616;2022-07-22T05:46:03;8.27;;;4.70;;
72087;SDS011;59961;50.232;8.616;2022-07-22T05:48:29;7.23;;;4.50;;
72087;SDS011;59961;50.232;8.616;2022-07-22T05:50:54;9.80;;;4.30;;
72087;SDS011;59961;50.232;8.616;2022-07-22T05:53:19;7.75;;;3.95;;
72087;SDS011;59961;50.232;8.616;2022-07-22T05:55:44;6.57;;;3.23;;
72087;SDS011;59961;50.232;8.616;2022-07-22T05:58:09;5.80;;;3.13;;
72087;SDS011;59961;50.232;8.616;2022-07-22T06:00:35;7.03;;;3.20;;
72087;SDS011;59961;50.232;8.616;2022-07-22T06:03:00;8.63;;;3.50;;
72087;SDS011;59961;50.232;8.616;2022-07-22T06:05:25;6.60;;;3.23;;
72087;SDS011;59961;50.232;8.616;2022-07-22T06:07:50;5.90;;;3.27;;
72087;SDS011;59961;50.232;8.616;2022-07-22T06:10:15;6.50;;;3.00;;
72087;SDS011;59961;50.232;8.616;2022-07-22T06:12:40;7.72;;;2.90;;
72087;SDS011;59961;50.232;8.616;2022-07-22T06:15:06;5.33;;;2.97;;
72087;SDS011;59961;50.232;8.616;2022-07-22T06:17:31;8.07;;;2.80;;
72087;SDS011;59961;50.232;8.616;2022-07-22T06:19:56;5.17;;;3.10;;
72087;SDS011;59961;50.232;8.616;2022-07-22T06:22:21;5.97;;;2.67;;
72087;SDS011;59961;50.232;8.616;2022-07-22T06:24:47;6.93;;;3.60;;
72087;SDS011;59961;50.232;8.616;2022-07-22T06:27:12;5.73;;;3.30;;
72087;SDS011;59961;50.232;8.616;2022-07-22T06:29:37;5.70;;;3.40;;
72087;SDS011;59961;50.232;8.616;2022-07-22T06:32:02;5.13;;;3.10;;
72087;SDS011;59961;50.232;8.616;2022-07-22T06:34:27;5.20;;;2.93;;
72087;SDS011;59961;50.232;8.616;2022-07-22T06:36:54;4.93;;;2.88;;
72087;SDS011;59961;50.232;8.616;2022-07-22T06:39:19;4.53;;;2.60;;
72087;SDS011;59961;50.232;8.616;2022-07-22T06:41:44;5.67;;;3.07;;
72087;SDS011;59961;50.232;8.616;2022-07-22T06:44:09;6.10;;;3.07;;
72087;SDS011;59961;50.232;8.616;2022-07-22T06:46:34;7.03;;;2.60;;
72087;SDS011;59961;50.232;8.616;2022-07-22T06:49:00;7.00;;;2.80;;
72087;SDS011;59961;50.232;8.616;2022-07-22T06:51:25;5.63;;;3.07;;
72087;SDS011;59961;50.232;8.616;2022-07-22T06:53:50;5.87;;;2.73;;
72087;SDS011;59961;50.232;8.616;2022-07-22T06:56:15;5.60;;;2.70;;
72087;SDS011;59961;50.232;8.616;2022-07-22T06:58:41;5.10;;;2.90;;
72087;SDS011;59961;50.232;8.616;2022-07-22T07:01:06;4.60;;;2.40;;
72087;SDS011;59961;50.232;8.616;2022-07-22T07:03:31;5.80;;;2.60;;
72087;SDS011;59961;50.232;8.616;2022-07-22T07:05:56;6.07;;;2.83;;
72087;SDS011;59961;50.232;8.616;2022-07-22T07:08:21;5.37;;;2.43;;
72087;SDS011;59961;50.232;8.616;2022-07-22T07:10:47;8.30;;;2.70;;
72087;SDS011;59961;50.232;8.616;2022-07-22T07:13:13;5.15;;;2.83;;
72087;SDS011;59961;50.232;8.616;2022-07-22T07:15:38;4.87;;;2.47;;
72087;SDS011;59961;50.232;8.616;2022-07-22T07:18:03;4.80;;;2.50;;
72087;SDS011;59961;50.232;8.616;2022-07-22T07:20:28;5.20;;;2.70;;
72087;SDS011;59961;50.232;8.616;2022-07-22T07:22:54;5.70;;;3.00;;
72087;SDS011;59961;50.232;8.616;2022-07-22T07:25:19;7.15;;;2.50;;
72087;SDS011;59961;50.232;8.616;2022-07-22T07:27:44;5.23;;;2.70;;
72087;SDS011;59961;50.232;8.616;2022-07-22T07:30:10;4.87;;;2.60;;
72087;SDS011;59961;50.232;8.616;2022-07-22T07:32:35;5.83;;;2.70;;
72087;SDS011;59961;50.232;8.616;2022-07-22T07:35:01;5.90;;;2.70;;
72087;SDS011;59961;50.232;8.616;2022-07-22T07:37:26;7.35;;;2.83;;
72087;SDS011;59961;50.232;8.616;2022-07-22T07:39:52;5.93;;;2.95;;
72087;SDS011;59961;50.232;8.616;2022-07-22T07:42:17;6.67;;;3.20;;
72087;SDS011;59961;50.232;8.616;2022-07-22T07:44:42;5.90;;;2.97;;
72087;SDS011;59961;50.232;8.616;2022-07-22T07:47:07;7.50;;;3.13;;
72087;SDS011;59961;50.232;8.616;2022-07-22T07:49:32;8.03;;;3.10;;
72087;SDS011;59961;50.232;8.616;2022-07-22T07:51:58;5.37;;;3.23;;
72087;SDS011;59961;50.232;8.616;2022-07-22T07:54:23;5.40;;;3.03;;
72087;SDS011;59961;50.232;8.616;2022-07-22T07:56:48;7.00;;;3.50;;
72087;SDS011;59961;50.232;8.616;2022-07-22T07:59:13;5.43;;;3.57;;
72087;SDS011;59961;50.232;8.616;2022-07-22T08:01:38;6.43;;;3.83;;
72087;SDS011;59961;50.232;8.616;2022-07-22T08:04:04;6.05;;;3.38;;
72087;SDS011;59961;50.232;8.616;2022-07-22T08:06:29;7.13;;;3.30;;
72087;SDS011;59961;50.232;8.616;2022-07-22T08:08:54;5.63;;;2.83;;
72087;SDS011;59961;50.232;8.616;2022-07-22T08:11:19;5.60;;;3.40;;
72087;SDS011;59961;50.232;8.616;2022-07-22T08:13:44;7.07;;;3.13;;
72087;SDS011;59961;50.232;8.616;2022-07-22T08:16:09;5.80;;;3.13;;
72087;SDS011;59961;50.232;8.616;2022-07-22T08:18:35;6.97;;;3.77;;
72087;SDS011;59961;50.232;8.616;2022-07-22T08:21:00;6.17;;;3.40;;
72087;SDS011;59961;50.232;8.616;2022-07-22T08:23:25;6.50;;;3.67;;
72087;SDS011;59961;50.232;8.616;2022-07-22T08:25:50;6.20;;;2.80;;
72087;SDS011;59961;50.232;8.616;2022-07-22T08:28:15;6.45;;;3.83;;
72087;SDS011;59961;50.232;8.616;2022-07-22T08:30:40;7.67;;;3.50;;
72087;SDS011;59961;50.232;8.616;2022-07-22T08:33:06;6.57;;;3.63;;
72087;SDS011;59961;50.232;8.616;2022-07-22T08:35:31;6.78;;;3.47;;
72087;SDS011;59961;50.232;8.616;2022-07-22T08:37:57;5.70;;;3.17;;
72087;SDS011;59961;50.232;8.616;2022-07-22T08:40:22;6.50;;;3.40;;
72087;SDS011;59961;50.232;8.616;2022-07-22T08:42:48;7.33;;;3.67;;
72087;SDS011;59961;50.232;8.616;2022-07-22T08:45:13;6.75;;;3.50;;
72087;SDS011;59961;50.232;8.616;2022-07-22T08:47:39;6.53;;;3.60;;
72087;SDS011;59961;50.232;8.616;2022-07-22T08:50:04;5.43;;;2.97;;
72087;SDS011;59961;50.232;8.616;2022-07-22T08:52:30;6.22;;;3.13;;
72087;SDS011;59961;50.232;8.616;2022-07-22T08:54:55;5.93;;;3.50;;
72087;SDS011;59961;50.232;8.616;2022-07-22T08:57:20;6.30;;;3.50;;
72087;SDS011;59961;50.232;8.616;2022-07-22T08:59:52;6.93;;;3.33;;
72087;SDS011;59961;50.232;8.616;2022-07-22T09:02:18;7.50;;;2.83;;
72087;SDS011;59961;50.232;8.616;2022-07-22T09:09:49;7.00;;;3.50;;
72087;SDS011;59961;50.232;8.616;2022-07-22T09:12:15;5.23;;;3.30;;
72087;SDS011;59961;50.232;8.616;2022-07-22T09:14:53;5.07;;;2.93;;
72087;SDS011;59961;50.232;8.616;2022-07-22T09:17:28;6.22;;;3.63;;
72087;SDS011;59961;50.232;8.616;2022-07-22T09:19:54;6.07;;;3.10;;
72087;SDS011;59961;50.232;8.616;2022-07-22T09:22:37;5.75;;;3.22;;
72087;SDS011;59961;50.232;8.616;2022-07-22T09:25:16;6.05;;;3.17;;
72087;SDS011;59961;50.232;8.616;2022-07-22T09:27:42;5.67;;;3.63;;
72087;SDS011;59961;50.232;8.616;2022-07-22T09:30:07;5.93;;;3.40;;
72087;SDS011;59961;50.232;8.616;2022-07-22T09:32:40;4.97;;;3.00;;
72087;SDS011;59961;50.232;8.616;2022-07-22T09:35:05;4.72;;;2.92;;
72087;SDS011;59961;50.232;8.616;2022-07-22T09:37:30;7.13;;;3.37;;
72087;SDS011;59961;50.232;8.616;2022-07-22T09:40:05;5.57;;;3.20;;
72087;SDS011;59961;50.232;8.616;2022-07-22T09:42:46;5.97;;;3.38;;
72087;SDS011;59961;50.232;8.616;2022-07-22T09:45:11;5.00;;;2.97;;
72087;SDS011;59961;50.232;8.616;2022-07-22T09:47:36;5.93;;;3.17;;
72087;SDS011;59961;50.232;8.616;2022-07-22T09:50:11;6.57;;;3.63;;
72087;SDS011;59961;50.232;8.616;2022-07-22T09:52:38;4.82;;;3.08;;
72087;SDS011;59961;50.232;8.616;2022-07-22T09:55:05;5.33;;;3.00;;
72087;SDS011;59961;50.232;8.616;2022-07-22T09:57:30;5.88;;;3.10;;
72087;SDS011;59961;50.232;8.616;2022-07-22T09:59:56;6.63;;;3.10;;
72087;SDS011;59961;50.232;8.616;2022-07-22T10:02:21;6.43;;;2.70;;
72087;SDS011;59961;50.232;8.616;2022-07-22T10:04:46;6.93;;;3.13;;
72087;SDS011;59961;50.232;8.616;2022-07-22T10:07:12;6.03;;;3.50;;
72087;SDS011;59961;50.232;8.616;2022-07-22T10:09:38;5.70;;;3.43;;
72087;SDS011;59961;50.232;8.616;2022-07-22T10:12:05;6.83;;;3.27;;
72087;SDS011;59961;50.232;8.616;2022-07-22T10:14:31;5.60;;;2.95;;
72087;SDS011;59961;50.232;8.616;2022-07-22T10:16:57;7.07;;;2.95;;
72087;SDS011;59961;50.232;8.616;2022-07-22T10:19:22;5.30;;;3.13;;
72087;SDS011;59961;50.232;8.616;2022-07-22T10:21:48;5.67;;;3.40;;
72087;SDS011;59961;50.232;8.616;2022-07-22T10:24:14;5.27;;;3.40;;
72087;SDS011;59961;50.232;8.616;2022-07-22T10:29:30;7.07;;;3.25;;
72087;SDS011;59961;50.232;8.616;2022-07-22T10:34:39;6.40;;;2.95;;
72087;SDS011;59961;50.232;8.616;2022-07-22T10:37:19;5.40;;;3.15;;
72087;SDS011;59961;50.232;8.616;2022-07-22T10:45:17;5.00;;;3.00;;
72087;SDS011;59961;50.232;8.616;2022-07-22T10:47:52;5.20;;;3.27;;
72087;SDS011;59961;50.232;8.616;2022-07-22T10:55:37;5.20;;;3.25;;
72087;SDS011;59961;50.232;8.616;2022-07-22T11:00:46;7.53;;;3.20;;
72087;SDS011;59961;50.232;8.616;2022-07-22T11:03:11;5.33;;;3.60;;
72087;SDS011;59961;50.232;8.616;2022-07-22T11:05:37;5.73;;;3.40;;
72087;SDS011;59961;50.232;8.616;2022-07-22T11:08:02;6.73;;;3.07;;
72087;SDS011;59961;50.232;8.616;2022-07-22T11:10:33;5.38;;;3.00;;
72087;SDS011;59961;50.232;8.616;2022-07-22T11:12:58;7.17;;;3.50;;
72087;SDS011;59961;50.232;8.616;2022-07-22T11:15:26;5.30;;;3.00;;
72087;SDS011;59961;50.232;8.616;2022-07-22T11:17:55;5.30;;;3.15;;
72087;SDS011;59961;50.232;8.616;2022-07-22T11:20:20;8.60;;;3.60;;
72087;SDS011;59961;50.232;8.616;2022-07-22T11:22:46;10.13;;;3.80;;
72087;SDS011;59961;50.232;8.616;2022-07-22T11:25:12;5.50;;;2.97;;
72087;SDS011;59961;50.232;8.616;2022-07-22T11:27:37;6.15;;;3.17;;
72087;SDS011;59961;50.232;8.616;2022-07-22T11:30:03;6.27;;;3.10;;
72087;SDS011;59961;50.232;8.616;2022-07-22T11:32:29;7.30;;;3.55;;
72087;SDS011;59961;50.232;8.616;2022-07-22T11:34:56;7.00;;;3.67;;
72087;SDS011;59961;50.232;8.616;2022-07-22T11:37:22;6.05;;;3.42;;
72087;SDS011;59961;50.232;8.616;2022-07-22T11:39:48;8.45;;;3.30;;
72087;SDS011;59961;50.232;8.616;2022-07-22T11:42:13;8.17;;;3.60;;
72087;SDS011;59961;50.232;8.616;2022-07-22T11:44:39;6.03;;;4.10;;
72087;SDS011;59961;50.232;8.616;2022-07-22T11:47:05;5.23;;;3.43;;
72087;SDS011;59961;50.232;8.616;2022-07-22T11:49:31;7.05;;;4.10;;
72087;SDS011;59961;50.232;8.616;2022-07-22T11:51:58;5.45;;;3.33;;
72087;SDS011;59961;50.232;8.616;2022-07-22T11:54:24;5.30;;;3.53;;
72087;SDS011;59961;50.232;8.616;2022-07-22T11:56:49;6.70;;;3.77;;
72087;SDS011;59961;50.232;8.616;2022-07-22T11:59:15;6.97;;;3.60;;
72087;SDS011;59961;50.232;8.616;2022-07-22T12:01:43;6.80;;;3.10;;
72087;SDS011;59961;50.232;8.616;2022-07-22T12:04:10;5.55;;;3.70;;
72087;SDS011;59961;50.232;8.616;2022-07-22T12:06:36;7.28;;;3.90;;
72087;SDS011;59961;50.232;8.616;2022-07-22T12:09:04;5.85;;;3.42;;
72087;SDS011;59961;50.232;8.616;2022-07-22T12:11:30;6.30;;;3.60;;
72087;SDS011;59961;50.232;8.616;2022-07-22T12:13:55;6.43;;;3.90;;
72087;SDS011;59961;50.232;8.616;2022-07-22T12:19:05;7.23;;;3.83;;
72087;SDS011;59961;50.232;8.616;2022-07-22T12:21:32;6.80;;;3.88;;
72087;SDS011;59961;50.232;8.616;2022-07-22T12:24:00;8.00;;;3.90;;
72087;SDS011;59961;50.232;8.616;2022-07-22T12:29:19;8.43;;;4.00;;
72087;SDS011;59961;50.232;8.616;2022-07-22T12:31:45;6.20;;;3.80;;
72087;SDS011;59961;50.232;8.616;2022-07-22T12:34:11;6.75;;;3.70;;
72087;SDS011;59961;50.232;8.616;2022-07-22T12:36:37;6.70;;;4.13;;
72087;SDS011;59961;50.232;8.616;2022-07-22T12:39:17;6.85;;;3.95;;
72087;SDS011;59961;50.232;8.616;2022-07-22T12:41:47;6.63;;;3.90;;
72087;SDS011;59961;50.232;8.616;2022-07-22T12:44:16;7.53;;;3.97;;
72087;SDS011;59961;50.232;8.616;2022-07-22T12:46:48;7.07;;;3.80;;
72087;SDS011;59961;50.232;8.616;2022-07-22T12:49:15;8.10;;;4.10;;
72087;SDS011;59961;50.232;8.616;2022-07-22T12:51:41;7.47;;;4.10;;
72087;SDS011;59961;50.232;8.616;2022-07-22T12:54:06;6.60;;;4.03;;
72087;SDS011;59961;50.232;8.616;2022-07-22T12:56:32;6.55;;;3.60;;
72087;SDS011;59961;50.232;8.616;2022-07-22T12:58:58;6.65;;;3.95;;
72087;SDS011;59961;50.232;8.616;2022-07-22T13:01:23;6.93;;;3.87;;
72087;SDS011;59961;50.232;8.616;2022-07-22T13:03:48;6.07;;;3.92;;
72087;SDS011;59961;50.232;8.616;2022-07-22T13:06:14;7.47;;;4.07;;
72087;SDS011;59961;50.232;8.616;2022-07-22T13:08:40;6.28;;;4.00;;
72087;SDS011;59961;50.232;8.616;2022-07-22T13:11:05;6.88;;;4.10;;
72087;SDS011;59961;50.232;8.616;2022-07-22T13:13:30;6.93;;;4.33;;
72087;SDS011;59961;50.232;8.616;2022-07-22T13:15:56;8.37;;;4.03;;
72087;SDS011;59961;50.232;8.616;2022-07-22T13:18:21;7.10;;;4.07;;
72087;SDS011;59961;50.232;8.616;2022-07-22T13:20:46;9.10;;;4.00;;
72087;SDS011;59961;50.232;8.616;2022-07-22T13:23:12;5.53;;;3.53;;
72087;SDS011;59961;50.232;8.616;2022-07-22T13:25:37;7.57;;;4.40;;
72087;SDS011;59961;50.232;8.616;2022-07-22T13:28:02;9.37;;;4.23;;
72087;SDS011;59961;50.232;8.616;2022-07-22T13:30:28;6.87;;;3.90;;
72087;SDS011;59961;50.232;8.616;2022-07-22T13:32:53;6.83;;;3.77;;
72087;SDS011;59961;50.232;8.616;2022-07-22T13:35:18;8.57;;;4.40;;
72087;SDS011;59961;50.232;8.616;2022-07-22T13:37:44;6.70;;;3.73;;
72087;SDS011;59961;50.232;8.616;2022-07-22T13:40:09;7.00;;;4.27;;
72087;SDS011;59961;50.232;8.616;2022-07-22T13:42:34;7.03;;;4.45;;
72087;SDS011;59961;50.232;8.616;2022-07-22T13:45:00;6.53;;;4.20;;
72087;SDS011;59961;50.232;8.616;2022-07-22T13:47:25;7.13;;;3.87;;
72087;SDS011;59961;50.232;8.616;2022-07-22T13:49:51;9.35;;;4.30;;
72087;SDS011;59961;50.232;8.616;2022-07-22T13:52:17;5.73;;;3.73;;
72087;SDS011;59961;50.232;8.616;2022-07-22T13:54:43;6.07;;;3.67;;
72087;SDS011;59961;50.232;8.616;2022-07-22T13:57:08;6.00;;;3.70;;
72087;SDS011;59961;50.232;8.616;2022-07-22T13:59:34;6.37;;;3.90;;
72087;SDS011;59961;50.232;8.616;2022-07-22T14:01:59;6.47;;;3.73;;
72087;SDS011;59961;50.232;8.616;2022-07-22T14:04:26;7.82;;;4.93;;
72087;SDS011;59961;50.232;8.616;2022-07-22T14:06:51;6.57;;;4.10;;
72087;SDS011;59961;50.232;8.616;2022-07-22T14:09:16;6.80;;;4.03;;
72087;SDS011;59961;50.232;8.616;2022-07-22T14:11:42;8.03;;;4.43;;
72087;SDS011;59961;50.232;8.616;2022-07-22T14:14:07;8.50;;;4.10;;
72087;SDS011;59961;50.232;8.616;2022-07-22T14:16:33;7.25;;;4.20;;
72087;SDS011;59961;50.232;8.616;2022-07-22T14:18:59;6.60;;;3.97;;
72087;SDS011;59961;50.232;8.616;2022-07-22T14:21:24;8.10;;;4.27;;
72087;SDS011;59961;50.232;8.616;2022-07-22T14:23:49;7.00;;;4.73;;
72087;SDS011;59961;50.232;8.616;2022-07-22T14:26:14;7.37;;;4.23;;
72087;SDS011;59961;50.232;8.616;2022-07-22T14:28:40;9.23;;;4.50;;
72087;SDS011;59961;50.232;8.616;2022-07-22T14:31:05;6.50;;;4.40;;
72087;SDS011;59961;50.232;8.616;2022-07-22T14:33:30;6.80;;;4.23;;
72087;SDS011;59961;50.232;8.616;2022-07-22T14:35:55;7.07;;;4.13;;
72087;SDS011;59961;50.232;8.616;2022-07-22T14:38:20;8.10;;;4.27;;
72087;SDS011;59961;50.232;8.616;2022-07-22T14:40:46;7.23;;;4.27;;
72087;SDS011;59961;50.232;8.616;2022-07-22T14:43:11;9.33;;;4.50;;
72087;SDS011;59961;50.232;8.616;2022-07-22T14:45:36;6.60;;;4.40;;
72087;SDS011;59961;50.232;8.616;2022-07-22T14:48:01;6.30;;;4.17;;
72087;SDS011;59961;50.232;8.616;2022-07-22T14:50:26;7.17;;;4.07;;
72087;SDS011;59961;50.232;8.616;2022-07-22T14:52:52;6.93;;;4.10;;
72087;SDS011;59961;50.232;8.616;2022-07-22T14:55:17;7.17;;;4.33;;
72087;SDS011;59961;50.232;8.616;2022-07-22T14:57:42;7.23;;;4.87;;
72087;SDS011;59961;50.232;8.616;2022-07-22T15:00:07;7.40;;;4.27;;
72087;SDS011;59961;50.232;8.616;2022-07-22T15:02:33;5.75;;;4.00;;
72087;SDS011;59961;50.232;8.616;2022-07-22T15:04:58;8.07;;;4.20;;
72087;SDS011;59961;50.232;8.616;2022-07-22T15:07:24;7.37;;;4.63;;